Terminal Aerodrome Forecast
Issued by NWS Pittsburgh, PA

Current Version | Previous Version | Text Only | Print | Product List | Glossary Off
Versions: 1 2 3 4 5 6 7 8 9 10 11 12 13 14 15 16 17 18 19 20 21 22 23 24 25 26 27 28 29

808
FTUS41 KPBZ 120239 AAA
TAFPIT
TAF AMD
KPIT 120239Z 1203/1306 00000KT P6SM BKN060
     FM120700 21010KT 3SM -RASN OVC035
     FM120900 21010KT P6SM OVC025
     FM121200 26011G27KT 2SM -SHSN OVC010
     FM121600 28014G31KT P6SM VCSH OVC025=

USA.gov is the U.S. government's official web portal to all federal, state and local government web resources and services.